createdAt,value
2018-08-05T00:00:51.358Z,101702.70
2018-08-05T00:03:20.656Z,101701.14
2018-08-05T00:05:49.957Z,101704.97
2018-08-05T00:08:19.261Z,101705.73
2018-08-05T00:10:48.564Z,101706.09
2018-08-05T00:13:17.942Z,101705.45
2018-08-05T00:15:47.301Z,101710.56
2018-08-05T00:18:16.590Z,101708.88
2018-08-05T00:20:45.890Z,101699.70
2018-08-05T00:23:15.171Z,101705.42
2018-08-05T00:25:44.446Z,101701.36
2018-08-05T00:28:13.598Z,101705.95
2018-08-05T00:30:42.854Z,101707.59
2018-08-05T00:33:12.384Z,101710.39
2018-08-05T00:35:42.036Z,101711.67
2018-08-05T00:38:11.297Z,101713.48
2018-08-05T00:40:40.651Z,101716.06
2018-08-05T00:43:10.015Z,101716.53
2018-08-05T00:45:39.300Z,101713.27
2018-08-05T00:48:08.763Z,101724.58
2018-08-05T00:50:38.042Z,101726.33
2018-08-05T00:53:07.318Z,101729.56
2018-08-05T00:55:36.595Z,101723.25
2018-08-05T00:58:06.369Z,101725.55
2018-08-05T01:00:35.680Z,101730.53
2018-08-05T01:03:04.968Z,101727.62
2018-08-05T01:05:34.303Z,101726.53
2018-08-05T01:08:03.854Z,101728.24
2018-08-05T01:10:33.160Z,101729.56
2018-08-05T01:13:02.454Z,101733.13
2018-08-05T01:15:31.789Z,101731.00
2018-08-05T01:18:01.019Z,101726.45
2018-08-05T01:20:30.828Z,101734.27
2018-08-05T01:23:00.106Z,101738.16
2018-08-05T01:25:29.133Z,101729.72
2018-08-05T01:27:58.458Z,101738.77
2018-08-05T01:30:27.711Z,101745.98
2018-08-05T01:32:56.969Z,101736.64
2018-08-05T01:35:26.264Z,101751.39
2018-08-05T01:37:55.569Z,101747.52
2018-08-05T01:40:24.830Z,101738.81
2018-08-05T01:42:54.473Z,101745.09
2018-08-05T01:45:23.830Z,101747.06
2018-08-05T01:47:53.103Z,101746.55
2018-08-05T01:50:22.210Z,101744.98
2018-08-05T01:52:51.536Z,101751.98
2018-08-05T01:55:20.746Z,101748.48
2018-08-05T01:57:50.066Z,101758.34
2018-08-05T02:00:19.362Z,101749.59
2018-08-05T02:02:48.662Z,101751.83
2018-08-05T02:05:18.218Z,101758.45
2018-08-05T02:07:47.542Z,101760.17
2018-08-05T02:10:16.843Z,101762.42
2018-08-05T02:12:45.909Z,101752.88
2018-08-05T02:15:15.192Z,101752.67
2018-08-05T02:17:44.460Z,101750.42
2018-08-05T02:20:13.835Z,101757.30
2018-08-05T02:22:43.080Z,101754.84
2018-08-05T02:25:12.368Z,101752.61
2018-08-05T02:27:42.388Z,101753.25
2018-08-05T02:30:11.798Z,101756.29
2018-08-05T02:32:41.078Z,101755.67
2018-08-05T02:35:10.384Z,101758.42
2018-08-05T02:37:39.875Z,101763.39
2018-08-05T02:40:09.179Z,101768.91
2018-08-05T02:42:38.481Z,101771.67
2018-08-05T02:45:07.931Z,101764.57
2018-08-05T02:47:37.192Z,101768.83
2018-08-05T02:50:07.372Z,101777.20
2018-08-05T02:52:36.624Z,101777.48
2018-08-05T02:55:06.016Z,101771.64
2018-08-05T02:57:35.285Z,101771.52
2018-08-05T03:00:04.980Z,101775.44
2018-08-05T03:02:34.256Z,101778.92
2018-08-05T03:05:03.593Z,101773.58
2018-08-05T03:07:32.843Z,101774.00
2018-08-05T03:10:02.091Z,101772.75
2018-08-05T03:12:31.514Z,101776.61
2018-08-05T03:15:00.799Z,101778.47
2018-08-05T03:17:30.266Z,101784.94
2018-08-05T03:20:00.328Z,101786.34
2018-08-05T03:22:29.606Z,101792.03
2018-08-05T03:24:58.856Z,101790.36
2018-08-05T03:27:28.172Z,101794.48
2018-08-05T03:29:57.458Z,101800.13
2018-08-05T03:32:26.970Z,101801.95
2018-08-05T03:34:56.835Z,101813.01
2018-08-05T03:37:26.088Z,101809.61
2018-08-05T03:39:55.513Z,101815.95
2018-08-05T03:42:24.809Z,101826.27
2018-08-05T03:44:54.086Z,101819.91
2018-08-05T03:47:23.358Z,101819.90
2018-08-05T03:49:52.657Z,101821.83
2018-08-05T03:52:21.962Z,101819.50
2018-08-05T03:54:51.246Z,101826.71
2018-08-05T03:57:21.012Z,101824.80
2018-08-05T03:59:50.282Z,101816.63
2018-08-05T04:02:19.519Z,101824.06
2018-08-05T04:04:48.883Z,101825.02
2018-08-05T04:07:18.181Z,101827.45
2018-08-05T04:09:47.466Z,101828.40
2018-08-05T04:12:16.753Z,101830.69
2018-08-05T04:14:46.055Z,101831.80
2018-08-05T04:17:15.363Z,101827.75
2018-08-05T04:19:44.903Z,101837.42
2018-08-05T04:22:14.170Z,101839.66
2018-08-05T04:24:43.451Z,101838.91
2018-08-05T04:27:12.974Z,101841.98
2018-08-05T04:29:42.376Z,101836.47
2018-08-05T04:32:11.719Z,101839.33
2018-08-05T04:34:41.120Z,101843.27
2018-08-05T04:37:10.422Z,101844.64
2018-08-05T04:39:39.707Z,101846.66
2018-08-05T04:42:09.314Z,101858.03
2018-08-05T04:44:38.580Z,101853.23
2018-08-05T04:47:08.153Z,101847.08
2018-08-05T04:49:37.579Z,101854.30
2018-08-05T04:52:06.886Z,101855.99
2018-08-05T04:54:36.150Z,101850.58
2018-08-05T04:57:05.535Z,101847.50
2018-08-05T04:59:34.763Z,101854.72
2018-08-05T05:02:04.026Z,101864.16
2018-08-05T05:04:33.935Z,101867.34
2018-08-05T05:07:03.193Z,101864.45
2018-08-05T05:09:32.495Z,101873.36
2018-08-05T05:12:01.827Z,101873.61
2018-08-05T05:14:31.203Z,101868.50
2018-08-05T05:17:00.447Z,101883.80
2018-08-05T05:19:29.704Z,101882.95
2018-08-05T05:21:58.970Z,101878.38
2018-08-05T05:24:28.264Z,101881.14
2018-08-05T05:26:57.809Z,101878.07
2018-08-05T05:29:27.113Z,101884.44
2018-08-05T05:31:56.471Z,101893.57
2018-08-05T05:34:25.839Z,101893.70
2018-08-05T05:36:55.527Z,101891.73
2018-08-05T05:39:24.995Z,101899.42
2018-08-05T05:41:54.315Z,101895.95
2018-08-05T05:44:23.610Z,101897.33
2018-08-05T05:46:52.908Z,101905.30
2018-08-05T05:49:22.608Z,101906.42
2018-08-05T05:51:51.887Z,101911.06
2018-08-05T05:54:21.145Z,101912.55
2018-08-05T05:56:50.537Z,101910.23
2018-08-05T05:59:19.782Z,101913.08
2018-08-05T06:01:49.091Z,101919.36
2018-08-05T06:04:18.496Z,101924.08
2018-08-05T06:06:47.770Z,101922.17
2018-08-05T06:09:17.042Z,101932.73
2018-08-05T06:11:46.722Z,101925.69
2018-08-05T06:14:15.982Z,101929.71
2018-08-05T06:16:45.234Z,101923.74
2018-08-05T06:19:14.267Z,101932.91
2018-08-05T06:21:43.622Z,101917.30
2018-08-05T06:24:12.687Z,101918.44
2018-08-05T06:26:42.275Z,101924.01
2018-08-05T06:29:15.362Z,101919.24
2018-08-05T06:31:45.133Z,101921.85
2018-08-05T06:34:14.407Z,101923.52
2018-08-05T06:36:43.703Z,101924.73
2018-08-05T06:39:13.040Z,101932.16
2018-08-05T06:41:42.324Z,101925.58
2018-08-05T06:44:11.775Z,101932.52
2018-08-05T06:46:41.065Z,101926.01
2018-08-05T06:49:10.317Z,101930.11
2018-08-05T06:51:39.561Z,101930.42
2018-08-05T06:54:09.339Z,101927.66
2018-08-05T06:56:38.799Z,101932.06
2018-08-05T06:59:08.062Z,101925.09
2018-08-05T07:01:37.371Z,101933.05
2018-08-05T07:04:06.639Z,101931.58
2018-08-05T07:06:35.895Z,101927.94
2018-08-05T07:09:08.272Z,101942.19
2018-08-05T07:11:37.587Z,101934.75
2018-08-05T07:14:07.018Z,101939.36
2018-08-05T07:16:36.996Z,101938.80
2018-08-05T07:19:07.568Z,101937.98
2018-08-05T07:21:36.825Z,101942.61
2018-08-05T07:24:06.105Z,101945.28
2018-08-05T07:26:35.363Z,101944.80
2018-08-05T07:29:04.894Z,101932.40
2018-08-05T07:31:34.226Z,101938.87
2018-08-05T07:34:03.580Z,101942.25
2018-08-05T07:36:32.833Z,101939.80
2018-08-05T07:39:02.266Z,101938.86
2018-08-05T07:41:31.523Z,101944.11
2018-08-05T07:44:00.811Z,101945.94
2018-08-05T07:46:30.126Z,101944.09
2018-08-05T07:48:59.415Z,101935.71
2018-08-05T07:51:28.686Z,101932.11
2018-08-05T07:53:57.958Z,101929.47
2018-08-05T07:56:27.295Z,101925.09
2018-08-05T07:58:56.533Z,101932.95
2018-08-05T08:01:26.241Z,101935.49
2018-08-05T08:03:55.542Z,101939.03
2018-08-05T08:06:24.845Z,101935.48
2018-08-05T08:08:54.121Z,101938.26
2018-08-05T08:11:23.445Z,101942.17
2018-08-05T08:13:52.738Z,101942.18
2018-08-05T08:16:22.046Z,101946.48
2018-08-05T08:18:51.476Z,101941.34
2018-08-05T08:21:20.784Z,101942.80
2018-08-05T08:23:51.154Z,101941.95
2018-08-05T08:26:20.416Z,101933.92
2018-08-05T08:28:49.756Z,101947.58
2018-08-05T08:31:19.156Z,101947.69
2018-08-05T08:33:48.352Z,101947.20
2018-08-05T08:36:17.636Z,101949.98
2018-08-05T08:38:47.080Z,101953.38
2018-08-05T08:41:16.358Z,101952.66
2018-08-05T08:43:45.810Z,101954.57
2018-08-05T08:46:15.561Z,101954.69
2018-08-05T08:48:44.927Z,101951.12
2018-08-05T08:51:14.441Z,101954.73
2018-08-05T08:53:43.879Z,101963.20
2018-08-05T08:56:13.172Z,101955.06
2018-08-05T08:58:42.510Z,101959.77
2018-08-05T09:01:11.861Z,101948.52
2018-08-05T09:03:41.242Z,101949.19
2018-08-05T09:06:10.577Z,101955.71
2018-08-05T09:08:40.335Z,101957.58
2018-08-05T09:11:09.978Z,101959.03
2018-08-05T09:13:39.275Z,101956.06
2018-08-05T09:16:08.701Z,101946.78
2018-08-05T09:18:37.981Z,101955.63
2018-08-05T09:21:07.512Z,101956.27
2018-08-05T09:23:36.807Z,101947.49
2018-08-05T09:26:06.139Z,101947.30
2018-08-05T09:28:35.453Z,101943.91
2018-08-05T09:31:04.941Z,101944.80
2018-08-05T09:33:34.193Z,101961.27
2018-08-05T09:36:03.611Z,101963.39
2018-08-05T09:38:32.899Z,101961.22
2018-08-05T09:41:02.268Z,101955.63
2018-08-05T09:43:31.649Z,101950.98
2018-08-05T09:46:00.758Z,101953.88
2018-08-05T09:48:30.055Z,101951.63
2018-08-05T09:50:59.607Z,101955.22
2018-08-05T09:53:29.732Z,101962.64
2018-08-05T09:55:59.043Z,101959.36
2018-08-05T09:58:28.382Z,101961.84
2018-08-05T10:00:57.635Z,101951.81
2018-08-05T10:03:27.111Z,101961.14
2018-08-05T10:05:56.492Z,101965.13
2018-08-05T10:08:25.912Z,101964.82
2018-08-05T10:10:55.371Z,101960.95
2018-08-05T10:13:24.962Z,101964.00
2018-08-05T10:15:54.629Z,101955.33
2018-08-05T10:18:23.989Z,101953.98
2018-08-05T10:20:53.310Z,101954.88
2018-08-05T10:23:22.671Z,101962.02
2018-08-05T10:25:52.025Z,101958.95
2018-08-05T10:28:21.341Z,101956.69
2018-08-05T10:30:50.677Z,101956.78
2018-08-05T10:33:20.261Z,101949.91
2018-08-05T10:35:49.519Z,101949.03
2018-08-05T10:38:18.947Z,101954.88
2018-08-05T10:40:48.223Z,101966.61
2018-08-05T10:43:17.480Z,101961.08
2018-08-05T10:45:47.666Z,101960.70
2018-08-05T10:48:17.372Z,101948.31
2018-08-05T10:50:46.651Z,101950.97
2018-08-05T10:53:15.922Z,101951.83
2018-08-05T10:55:45.763Z,101953.64
2018-08-05T10:58:15.158Z,101951.36
2018-08-05T11:00:44.829Z,101946.58
2018-08-05T11:03:14.115Z,101949.89
2018-08-05T11:05:43.386Z,101951.84
2018-08-05T11:08:12.773Z,101949.23
2018-08-05T11:10:42.092Z,101949.80
2018-08-05T11:13:11.503Z,101941.97
2018-08-05T11:15:40.750Z,101950.98
2018-08-05T11:18:10.011Z,101947.38
2018-08-05T11:20:39.506Z,101939.69
2018-08-05T11:23:08.932Z,101934.20
2018-08-05T11:25:38.221Z,101933.75
2018-08-05T11:28:07.673Z,101937.12
2018-08-05T11:30:36.978Z,101937.45
2018-08-05T11:33:06.339Z,101937.30
2018-08-05T11:35:35.632Z,101936.84
2018-08-05T11:38:04.991Z,101936.08
2018-08-05T11:40:34.338Z,101939.34
2018-08-05T11:43:03.654Z,101938.10
2018-08-05T11:45:33.596Z,101942.24
2018-08-05T11:48:03.229Z,101937.87
2018-08-05T11:50:32.614Z,101941.26
2018-08-05T11:53:02.238Z,101939.85
2018-08-05T11:55:31.544Z,101938.59
2018-08-05T11:58:00.852Z,101932.33
2018-08-05T12:00:30.158Z,101934.69
2018-08-05T12:02:59.442Z,101943.95
2018-08-05T12:05:28.731Z,101940.76
2018-08-05T12:07:58.500Z,101934.72
2018-08-05T12:10:27.774Z,101942.82
2018-08-05T12:12:57.241Z,101935.37
2018-08-05T12:15:26.557Z,101932.96
2018-08-05T12:17:55.949Z,101937.17
2018-08-05T12:20:25.301Z,101938.86
2018-08-05T12:22:54.632Z,101947.88
2018-08-05T12:25:24.020Z,101938.16
2018-08-05T12:27:53.266Z,101935.91
2018-08-05T12:30:23.070Z,101936.10
2018-08-05T12:32:52.486Z,101937.11
2018-08-05T12:35:21.923Z,101937.28
2018-08-05T12:37:51.250Z,101929.70
2018-08-05T12:40:20.513Z,101943.07
2018-08-05T12:42:49.813Z,101938.37
2018-08-05T12:45:19.288Z,101933.40
2018-08-05T12:47:48.567Z,101930.19
2018-08-05T12:50:17.928Z,101929.41
2018-08-05T12:52:47.480Z,101933.48
2018-08-05T12:55:16.760Z,101935.76
2018-08-05T12:57:46.129Z,101929.71
2018-08-05T13:00:15.485Z,101934.69
2018-08-05T13:02:44.997Z,101935.07
2018-08-05T13:05:14.366Z,101935.95
2018-08-05T13:07:43.780Z,101932.50
2018-08-05T13:10:13.050Z,101935.21
2018-08-05T13:12:51.491Z,101931.95
2018-08-05T13:15:27.630Z,101937.18
2018-08-05T13:17:58.316Z,101939.13
2018-08-05T13:20:27.606Z,101935.02
2018-08-05T13:22:56.910Z,101930.47
2018-08-05T13:25:27.924Z,101939.69
2018-08-05T13:27:57.419Z,101927.50
2018-08-05T13:30:26.687Z,101917.98
2018-08-05T13:32:56.343Z,101920.91
2018-08-05T13:35:25.627Z,101919.26
2018-08-05T13:37:54.624Z,101919.70
2018-08-05T13:40:23.929Z,101925.80
2018-08-05T13:42:53.228Z,101922.08
2018-08-05T13:45:22.560Z,101927.55
2018-08-05T13:47:51.867Z,101920.94
2018-08-05T13:50:21.322Z,101923.11
2018-08-05T13:52:50.608Z,101929.41
2018-08-05T13:55:20.563Z,101924.95
2018-08-05T13:57:49.904Z,101925.48
2018-08-05T14:00:19.226Z,101925.07
2018-08-05T14:02:48.750Z,101920.52
2018-08-05T14:05:18.148Z,101928.00
2018-08-05T14:07:47.430Z,101921.30
2018-08-05T14:10:16.791Z,101924.94
2018-08-05T14:12:46.097Z,101912.80
2018-08-05T14:15:15.491Z,101906.16
2018-08-05T14:17:44.914Z,101913.80
2018-08-05T14:20:14.262Z,101909.89
2018-08-05T14:22:43.792Z,101917.56
2018-08-05T14:25:13.177Z,101914.25
2018-08-05T14:27:42.492Z,101912.14
2018-08-05T14:30:11.872Z,101911.17
2018-08-05T14:32:41.278Z,101907.25
2018-08-05T14:35:10.636Z,101897.84
2018-08-05T14:37:40.274Z,101903.00
2018-08-05T14:40:10.038Z,101901.23
2018-08-05T14:42:39.526Z,101898.96
2018-08-05T14:45:08.982Z,101897.98
2018-08-05T14:47:38.558Z,101895.88
2018-08-05T14:50:07.875Z,101898.62
2018-08-05T14:52:37.219Z,101902.97
2018-08-05T14:55:06.587Z,101904.23
2018-08-05T14:57:35.969Z,101910.48
2018-08-05T15:00:07.180Z,101911.77
2018-08-05T15:02:36.599Z,101901.56
2018-08-05T15:05:06.344Z,101901.28
2018-08-05T15:07:35.751Z,101897.70
2018-08-05T15:10:05.038Z,101893.13
2018-08-05T15:12:34.401Z,101888.90
2018-08-05T15:15:03.897Z,101878.82
2018-08-05T15:17:33.507Z,101877.11
2018-08-05T15:20:02.820Z,101873.92
2018-08-05T15:22:32.154Z,101881.37
2018-08-05T15:25:01.616Z,101880.97
2018-08-05T15:27:30.907Z,101873.27
2018-08-05T15:30:00.222Z,101878.62
2018-08-05T15:32:29.581Z,101871.83
2018-08-05T15:34:58.901Z,101876.63
2018-08-05T15:37:28.294Z,101872.14
2018-08-05T15:39:57.963Z,101872.33
2018-08-05T15:42:27.464Z,101864.49
2018-08-05T15:44:56.798Z,101853.04
2018-08-05T15:47:26.255Z,101863.09
2018-08-05T15:49:55.754Z,101859.52
2018-08-05T15:52:25.118Z,101859.53
2018-08-05T15:54:54.534Z,101860.75
2018-08-05T15:57:23.819Z,101864.84
2018-08-05T15:59:53.287Z,101862.78
2018-08-05T16:02:22.806Z,101858.97
2018-08-05T16:04:52.186Z,101857.60
2018-08-05T16:07:21.708Z,101853.17
2018-08-05T16:09:51.207Z,101856.25
2018-08-05T16:12:20.514Z,101853.63
2018-08-05T16:14:49.876Z,101856.11
2018-08-05T16:17:19.412Z,101857.40
2018-08-05T16:19:48.753Z,101847.46
2018-08-05T16:22:18.048Z,101854.27
2018-08-05T16:24:47.407Z,101853.47
2018-08-05T16:27:16.479Z,101850.30
2018-08-05T16:29:45.775Z,101849.05
2018-08-05T16:32:15.344Z,101838.56
2018-08-05T16:34:44.883Z,101837.97
2018-08-05T16:37:14.547Z,101840.31
2018-08-05T16:39:43.803Z,101840.02
2018-08-05T16:42:13.414Z,101845.02
2018-08-05T16:44:42.815Z,101847.94
2018-08-05T16:47:12.330Z,101846.44
2018-08-05T16:49:42.057Z,101837.46
2018-08-05T16:52:11.375Z,101841.77
2018-08-05T16:54:40.815Z,101846.97
2018-08-05T16:57:10.261Z,101835.17
2018-08-05T16:59:39.698Z,101840.84
2018-08-05T17:02:09.123Z,101831.00
2018-08-05T17:04:38.615Z,101834.67
2018-08-05T17:07:07.914Z,101835.69
2018-08-05T17:09:37.312Z,101826.27
2018-08-05T17:12:06.771Z,101830.03
2018-08-05T17:14:36.233Z,101833.11
2018-08-05T17:17:05.925Z,101833.89
2018-08-05T17:19:35.190Z,101838.22
2018-08-05T17:22:04.611Z,101837.22
2018-08-05T17:24:34.038Z,101835.83
2018-08-05T17:27:03.501Z,101831.72
2018-08-05T17:29:33.077Z,101831.30
2018-08-05T17:32:02.438Z,101840.34
2018-08-05T17:34:31.767Z,101835.10
2018-08-05T17:37:01.130Z,101839.20
2018-08-05T17:39:30.514Z,101833.50
2018-08-05T17:42:00.124Z,101830.97
2018-08-05T17:44:29.635Z,101830.67
2018-08-05T17:46:59.178Z,101833.46
2018-08-05T17:49:28.373Z,101818.44
2018-08-05T17:51:58.198Z,101830.63
2018-08-05T17:54:27.607Z,101827.31
2018-08-05T17:56:57.053Z,101824.94
2018-08-05T17:59:26.715Z,101825.37
2018-08-05T18:01:56.261Z,101819.16
2018-08-05T18:04:25.655Z,101821.27
2018-08-05T18:06:55.248Z,101815.05
2018-08-05T18:09:24.610Z,101826.28
2018-08-05T18:11:53.933Z,101824.33
2018-08-05T18:14:23.276Z,101825.18
2018-08-05T18:16:52.693Z,101828.42
2018-08-05T18:19:22.221Z,101833.50
2018-08-05T18:21:51.839Z,101827.41
2018-08-05T18:24:21.676Z,101826.15
2018-08-05T18:26:50.932Z,101828.05
2018-08-05T18:29:20.278Z,101827.58
2018-08-05T18:31:49.606Z,101825.11
2018-08-05T18:34:18.904Z,101832.63
2018-08-05T18:36:48.220Z,101832.31
2018-08-05T18:39:17.582Z,101825.33
2018-08-05T18:41:46.924Z,101835.23
2018-08-05T18:44:16.295Z,101837.37
2018-08-05T18:46:46.150Z,101827.50
2018-08-05T18:49:15.511Z,101830.59
2018-08-05T18:51:44.866Z,101834.22
2018-08-05T18:54:14.977Z,101823.91
2018-08-05T18:56:44.368Z,101828.30
2018-08-05T18:59:13.705Z,101832.77
2018-08-05T19:01:43.108Z,101831.61
2018-08-05T19:04:12.424Z,101832.58
2018-08-05T19:06:41.865Z,101833.87
2018-08-05T19:09:12.437Z,101831.58
2018-08-05T19:11:42.269Z,101830.88
2018-08-05T19:14:11.577Z,101831.41
2018-08-05T19:16:41.457Z,101835.11
2018-08-05T19:19:15.024Z,101841.78
2018-08-05T19:21:44.386Z,101844.42
2018-08-05T19:24:15.161Z,101837.39
2018-08-05T19:26:45.915Z,101840.67
2018-08-05T19:29:18.134Z,101838.69
2018-08-05T19:31:49.308Z,101848.28
2018-08-05T19:34:21.574Z,101846.22
2018-08-05T19:36:52.762Z,101846.84
2018-08-05T19:39:22.166Z,101844.28
2018-08-05T19:41:51.765Z,101844.72
2018-08-05T19:44:21.506Z,101846.73
2018-08-05T19:46:50.812Z,101840.79
2018-08-05T19:49:20.206Z,101838.47
2018-08-05T19:51:49.566Z,101843.11
2018-08-05T19:54:19.115Z,101843.52
2018-08-05T19:56:48.547Z,101836.73
2018-08-05T19:59:17.902Z,101839.19
2018-08-05T20:01:47.486Z,101833.52
2018-08-05T20:04:16.851Z,101831.24
2018-08-05T20:06:46.690Z,101830.89
2018-08-05T20:09:16.060Z,101829.33
2018-08-05T20:11:45.383Z,101838.43
2018-08-05T20:14:14.779Z,101837.27
2018-08-05T20:16:44.107Z,101830.92
2018-08-05T20:19:13.525Z,101832.38
2018-08-05T20:21:42.979Z,101834.96
2018-08-05T20:24:12.459Z,101836.97
2018-08-05T20:26:41.758Z,101841.08
2018-08-05T20:29:11.499Z,101845.66
2018-08-05T20:31:41.563Z,101842.46
2018-08-05T20:34:11.021Z,101847.55
2018-08-05T20:36:40.399Z,101841.20
2018-08-05T20:39:13.119Z,101836.18
2018-08-05T20:41:43.245Z,101835.27
2018-08-05T20:44:13.169Z,101838.31
2018-08-05T20:46:42.536Z,101838.63
2018-08-05T20:49:12.402Z,101840.22
2018-08-05T20:51:41.737Z,101840.84
2018-08-05T20:54:11.074Z,101839.75
2018-08-05T20:56:40.702Z,101837.20
2018-08-05T20:59:10.092Z,101842.92
2018-08-05T21:01:39.996Z,101837.40
2018-08-05T21:04:10.050Z,101836.86
2018-08-05T21:06:39.132Z,101840.69
2018-08-05T21:09:10.982Z,101845.67
2018-08-05T21:11:40.452Z,101840.34
2018-08-05T21:14:10.010Z,101844.33
2018-08-05T21:16:40.288Z,101845.20
2018-08-05T21:19:09.593Z,101848.55
2018-08-05T21:21:38.969Z,101847.56
2018-08-05T21:24:08.296Z,101846.61
2018-08-05T21:26:37.642Z,101854.12
2018-08-05T21:29:06.896Z,101857.77
2018-08-05T21:31:36.936Z,101857.56
2018-08-05T21:34:06.419Z,101859.93
2018-08-05T21:36:35.753Z,101859.07
2018-08-05T21:39:07.378Z,101862.67
2018-08-05T21:41:36.759Z,101868.52
2018-08-05T21:44:06.263Z,101874.99
2018-08-05T21:46:35.583Z,101869.16
2018-08-05T21:49:04.876Z,101867.97
2018-08-05T21:51:34.206Z,101870.11
2018-08-05T21:54:03.999Z,101869.46
2018-08-05T21:56:33.595Z,101867.87
2018-08-05T21:59:02.978Z,101867.66
2018-08-05T22:01:32.277Z,101866.22
2018-08-05T22:04:01.903Z,101866.62
2018-08-05T22:06:31.446Z,101860.37
2018-08-05T22:09:00.759Z,101865.56
2018-08-05T22:11:30.042Z,101858.95
2018-08-05T22:13:59.418Z,101857.98
2018-08-05T22:16:28.970Z,101870.70
2018-08-05T22:18:58.278Z,101866.03
2018-08-05T22:21:27.579Z,101858.55
2018-08-05T22:23:56.924Z,101871.45
2018-08-05T22:26:26.431Z,101861.92
2018-08-05T22:28:55.674Z,101865.88
2018-08-05T22:31:25.028Z,101871.39
2018-08-05T22:33:54.371Z,101868.48
2018-08-05T22:36:23.899Z,101873.50
2018-08-05T22:38:53.346Z,101871.06
2018-08-05T22:41:23.191Z,101874.75
2018-08-05T22:43:52.552Z,101866.94
2018-08-05T22:46:21.865Z,101866.94
2018-08-05T22:48:51.206Z,101862.48
2018-08-05T22:51:20.466Z,101865.30
2018-08-05T22:53:49.778Z,101859.80
2018-08-05T22:56:19.195Z,101870.72
2018-08-05T22:58:48.546Z,101865.22
2018-08-05T23:01:17.983Z,101864.20
2018-08-05T23:03:47.268Z,101859.27
2018-08-05T23:06:16.610Z,101853.16
2018-08-05T23:08:45.933Z,101851.86
2018-08-05T23:11:15.202Z,101853.16
2018-08-05T23:13:44.464Z,101851.13
2018-08-05T23:16:13.825Z,101866.09
2018-08-05T23:18:43.113Z,101857.16
2018-08-05T23:21:12.454Z,101849.02
2018-08-05T23:23:42.221Z,101851.44
2018-08-05T23:26:11.507Z,101848.81
2018-08-05T23:28:40.795Z,101842.39
2018-08-05T23:31:10.155Z,101849.48
2018-08-05T23:33:39.435Z,101833.00
2018-08-05T23:36:08.812Z,101847.38
2018-08-05T23:38:38.469Z,101842.13
2018-08-05T23:41:07.797Z,101838.48
2018-08-05T23:43:37.162Z,101837.13
2018-08-05T23:46:06.980Z,101839.14
2018-08-05T23:48:36.256Z,101840.66
2018-08-05T23:51:05.572Z,101843.92
2018-08-05T23:53:34.832Z,101837.73
2018-08-05T23:56:04.178Z,101841.78
2018-08-05T23:58:33.510Z,101829.20
